sensor_id;sensor_type;location;lat;lon;timestamp;P1;durP1;ratioP1;P2;durP2;ratioP2
33190;SDS011;19554;42.652;23.364;2023-12-20T00:01:03;61.67;;;34.53;;
33190;SDS011;19554;42.652;23.364;2023-12-20T00:03:29;55.20;;;31.65;;
33190;SDS011;19554;42.652;23.364;2023-12-20T00:05:54;52.25;;;29.58;;
33190;SDS011;19554;42.652;23.364;2023-12-20T00:08:20;65.47;;;35.05;;
33190;SDS011;19554;42.652;23.364;2023-12-20T00:10:46;64.15;;;35.28;;
33190;SDS011;19554;42.652;23.364;2023-12-20T00:13:12;66.75;;;36.25;;
33190;SDS011;19554;42.652;23.364;2023-12-20T00:15:37;61.85;;;33.17;;
33190;SDS011;19554;42.652;23.364;2023-12-20T00:18:03;64.90;;;35.45;;
33190;SDS011;19554;42.652;23.364;2023-12-20T00:20:29;66.30;;;36.45;;
33190;SDS011;19554;42.652;23.364;2023-12-20T00:22:55;68.55;;;35.30;;
33190;SDS011;19554;42.652;23.364;2023-12-20T00:25:22;64.32;;;33.63;;
33190;SDS011;19554;42.652;23.364;2023-12-20T00:27:48;62.95;;;32.35;;
33190;SDS011;19554;42.652;23.364;2023-12-20T00:30:13;62.47;;;34.60;;
33190;SDS011;19554;42.652;23.364;2023-12-20T00:32:39;58.88;;;29.73;;
33190;SDS011;19554;42.652;23.364;2023-12-20T00:35:04;48.25;;;28.83;;
33190;SDS011;19554;42.652;23.364;2023-12-20T00:37:30;47.28;;;24.95;;
33190;SDS011;19554;42.652;23.364;2023-12-20T00:39:55;54.10;;;29.15;;
33190;SDS011;19554;42.652;23.364;2023-12-20T00:42:21;46.47;;;28.15;;
33190;SDS011;19554;42.652;23.364;2023-12-20T00:44:46;44.33;;;25.55;;
33190;SDS011;19554;42.652;23.364;2023-12-20T00:47:11;43.22;;;24.15;;
33190;SDS011;19554;42.652;23.364;2023-12-20T00:49:38;40.30;;;23.60;;
33190;SDS011;19554;42.652;23.364;2023-12-20T00:52:03;46.47;;;24.20;;
33190;SDS011;19554;42.652;23.364;2023-12-20T00:54:29;49.15;;;25.35;;
33190;SDS011;19554;42.652;23.364;2023-12-20T00:56:55;46.15;;;25.98;;
33190;SDS011;19554;42.652;23.364;2023-12-20T00:59:21;52.78;;;29.27;;
33190;SDS011;19554;42.652;23.364;2023-12-20T01:01:46;55.90;;;32.63;;
33190;SDS011;19554;42.652;23.364;2023-12-20T01:04:12;60.78;;;32.05;;
33190;SDS011;19554;42.652;23.364;2023-12-20T01:06:37;55.65;;;32.28;;
33190;SDS011;19554;42.652;23.364;2023-12-20T01:09:03;57.55;;;33.33;;
33190;SDS011;19554;42.652;23.364;2023-12-20T01:11:29;69.18;;;35.13;;
33190;SDS011;19554;42.652;23.364;2023-12-20T01:13:54;64.95;;;34.08;;
33190;SDS011;19554;42.652;23.364;2023-12-20T01:16:20;72.03;;;39.65;;
33190;SDS011;19554;42.652;23.364;2023-12-20T01:18:45;67.28;;;36.50;;
33190;SDS011;19554;42.652;23.364;2023-12-20T01:21:11;57.70;;;31.23;;
33190;SDS011;19554;42.652;23.364;2023-12-20T01:23:36;62.63;;;33.85;;
33190;SDS011;19554;42.652;23.364;2023-12-20T01:26:02;62.58;;;33.67;;
33190;SDS011;19554;42.652;23.364;2023-12-20T01:28:29;60.60;;;33.70;;
33190;SDS011;19554;42.652;23.364;2023-12-20T01:30:55;54.42;;;29.92;;
33190;SDS011;19554;42.652;23.364;2023-12-20T01:33:20;47.72;;;28.38;;
33190;SDS011;19554;42.652;23.364;2023-12-20T01:35:46;52.25;;;29.17;;
33190;SDS011;19554;42.652;23.364;2023-12-20T01:38:11;46.42;;;25.42;;
33190;SDS011;19554;42.652;23.364;2023-12-20T01:40:37;40.50;;;21.98;;
33190;SDS011;19554;42.652;23.364;2023-12-20T01:43:05;37.70;;;21.33;;
33190;SDS011;19554;42.652;23.364;2023-12-20T01:45:33;32.78;;;18.38;;
33190;SDS011;19554;42.652;23.364;2023-12-20T01:47:59;37.80;;;21.48;;
33190;SDS011;19554;42.652;23.364;2023-12-20T01:50:26;51.08;;;25.70;;
33190;SDS011;19554;42.652;23.364;2023-12-20T01:52:53;44.30;;;24.38;;
33190;SDS011;19554;42.652;23.364;2023-12-20T01:55:22;37.63;;;20.03;;
33190;SDS011;19554;42.652;23.364;2023-12-20T01:57:49;39.72;;;20.05;;
33190;SDS011;19554;42.652;23.364;2023-12-20T02:00:15;34.75;;;19.00;;
33190;SDS011;19554;42.652;23.364;2023-12-20T02:02:42;36.22;;;20.20;;
33190;SDS011;19554;42.652;23.364;2023-12-20T02:05:09;31.05;;;18.10;;
33190;SDS011;19554;42.652;23.364;2023-12-20T02:07:35;30.17;;;17.27;;
33190;SDS011;19554;42.652;23.364;2023-12-20T02:10:01;32.95;;;18.77;;
33190;SDS011;19554;42.652;23.364;2023-12-20T02:12:27;34.10;;;20.25;;
33190;SDS011;19554;42.652;23.364;2023-12-20T02:14:52;39.65;;;22.83;;
33190;SDS011;19554;42.652;23.364;2023-12-20T02:17:19;48.50;;;25.55;;
33190;SDS011;19554;42.652;23.364;2023-12-20T02:19:45;53.08;;;28.73;;
33190;SDS011;19554;42.652;23.364;2023-12-20T02:22:10;46.38;;;25.95;;
33190;SDS011;19554;42.652;23.364;2023-12-20T02:24:36;48.55;;;25.40;;
33190;SDS011;19554;42.652;23.364;2023-12-20T02:27:02;42.03;;;23.27;;
33190;SDS011;19554;42.652;23.364;2023-12-20T02:29:30;32.65;;;18.85;;
33190;SDS011;19554;42.652;23.364;2023-12-20T02:31:56;38.70;;;20.48;;
33190;SDS011;19554;42.652;23.364;2023-12-20T02:34:21;48.65;;;23.85;;
33190;SDS011;19554;42.652;23.364;2023-12-20T02:36:47;43.28;;;23.67;;
33190;SDS011;19554;42.652;23.364;2023-12-20T02:39:12;47.10;;;25.40;;
33190;SDS011;19554;42.652;23.364;2023-12-20T02:41:38;45.40;;;25.05;;
33190;SDS011;19554;42.652;23.364;2023-12-20T02:44:03;44.28;;;25.02;;
33190;SDS011;19554;42.652;23.364;2023-12-20T02:46:29;47.78;;;25.30;;
33190;SDS011;19554;42.652;23.364;2023-12-20T02:48:54;47.60;;;24.38;;
33190;SDS011;19554;42.652;23.364;2023-12-20T02:51:20;45.22;;;24.67;;
33190;SDS011;19554;42.652;23.364;2023-12-20T02:53:45;47.20;;;24.90;;
33190;SDS011;19554;42.652;23.364;2023-12-20T02:56:11;52.13;;;26.50;;
33190;SDS011;19554;42.652;23.364;2023-12-20T02:58:36;49.65;;;25.55;;
33190;SDS011;19554;42.652;23.364;2023-12-20T03:01:02;64.93;;;34.25;;
33190;SDS011;19554;42.652;23.364;2023-12-20T03:03:28;63.08;;;33.90;;
33190;SDS011;19554;42.652;23.364;2023-12-20T03:05:53;66.00;;;36.13;;
33190;SDS011;19554;42.652;23.364;2023-12-20T03:08:18;67.78;;;35.38;;
33190;SDS011;19554;42.652;23.364;2023-12-20T03:10:44;59.08;;;31.98;;
33190;SDS011;19554;42.652;23.364;2023-12-20T03:13:09;61.17;;;31.90;;
33190;SDS011;19554;42.652;23.364;2023-12-20T03:15:35;59.22;;;31.00;;
33190;SDS011;19554;42.652;23.364;2023-12-20T03:18:01;56.75;;;29.85;;
33190;SDS011;19554;42.652;23.364;2023-12-20T03:20:26;52.80;;;26.95;;
33190;SDS011;19554;42.652;23.364;2023-12-20T03:22:52;54.58;;;30.08;;
33190;SDS011;19554;42.652;23.364;2023-12-20T03:25:17;48.65;;;26.00;;
33190;SDS011;19554;42.652;23.364;2023-12-20T03:27:43;58.58;;;30.08;;
33190;SDS011;19554;42.652;23.364;2023-12-20T03:30:08;58.65;;;31.77;;
33190;SDS011;19554;42.652;23.364;2023-12-20T03:32:34;59.42;;;29.95;;
33190;SDS011;19554;42.652;23.364;2023-12-20T03:35:00;55.78;;;28.70;;
33190;SDS011;19554;42.652;23.364;2023-12-20T03:37:25;63.15;;;34.70;;
33190;SDS011;19554;42.652;23.364;2023-12-20T03:39:51;66.05;;;38.38;;
33190;SDS011;19554;42.652;23.364;2023-12-20T03:42:16;54.05;;;28.98;;
33190;SDS011;19554;42.652;23.364;2023-12-20T03:44:42;49.38;;;28.42;;
33190;SDS011;19554;42.652;23.364;2023-12-20T03:47:07;55.05;;;28.88;;
33190;SDS011;19554;42.652;23.364;2023-12-20T03:49:33;52.95;;;27.25;;
33190;SDS011;19554;42.652;23.364;2023-12-20T03:51:58;58.63;;;30.40;;
33190;SDS011;19554;42.652;23.364;2023-12-20T03:54:24;53.35;;;29.48;;
33190;SDS011;19554;42.652;23.364;2023-12-20T03:56:49;56.70;;;31.50;;
33190;SDS011;19554;42.652;23.364;2023-12-20T03:59:15;60.88;;;33.60;;
33190;SDS011;19554;42.652;23.364;2023-12-20T04:01:44;71.57;;;41.50;;
33190;SDS011;19554;42.652;23.364;2023-12-20T04:04:10;63.33;;;38.75;;
33190;SDS011;19554;42.652;23.364;2023-12-20T04:06:36;69.13;;;41.03;;
33190;SDS011;19554;42.652;23.364;2023-12-20T04:09:01;67.65;;;36.38;;
33190;SDS011;19554;42.652;23.364;2023-12-20T04:11:27;66.60;;;34.38;;
33190;SDS011;19554;42.652;23.364;2023-12-20T04:13:52;67.65;;;34.60;;
33190;SDS011;19554;42.652;23.364;2023-12-20T04:16:18;53.90;;;31.90;;
33190;SDS011;19554;42.652;23.364;2023-12-20T04:18:43;57.92;;;31.45;;
33190;SDS011;19554;42.652;23.364;2023-12-20T04:21:09;58.03;;;33.28;;
33190;SDS011;19554;42.652;23.364;2023-12-20T04:23:34;68.95;;;37.33;;
33190;SDS011;19554;42.652;23.364;2023-12-20T04:25:59;66.78;;;36.22;;
33190;SDS011;19554;42.652;23.364;2023-12-20T04:28:25;57.75;;;32.35;;
33190;SDS011;19554;42.652;23.364;2023-12-20T04:30:50;57.67;;;34.17;;
33190;SDS011;19554;42.652;23.364;2023-12-20T04:33:16;52.22;;;30.30;;
33190;SDS011;19554;42.652;23.364;2023-12-20T04:35:41;50.35;;;28.00;;
33190;SDS011;19554;42.652;23.364;2023-12-20T04:38:08;50.67;;;29.50;;
33190;SDS011;19554;42.652;23.364;2023-12-20T04:40:34;53.95;;;30.15;;
33190;SDS011;19554;42.652;23.364;2023-12-20T04:42:59;52.90;;;29.33;;
33190;SDS011;19554;42.652;23.364;2023-12-20T04:45:25;56.63;;;32.15;;
33190;SDS011;19554;42.652;23.364;2023-12-20T04:47:51;58.92;;;32.80;;
33190;SDS011;19554;42.652;23.364;2023-12-20T04:50:16;55.83;;;31.25;;
33190;SDS011;19554;42.652;23.364;2023-12-20T04:52:42;52.97;;;29.88;;
33190;SDS011;19554;42.652;23.364;2023-12-20T04:55:08;57.47;;;31.02;;
33190;SDS011;19554;42.652;23.364;2023-12-20T04:57:34;51.05;;;29.17;;
33190;SDS011;19554;42.652;23.364;2023-12-20T05:00:00;56.83;;;30.35;;
33190;SDS011;19554;42.652;23.364;2023-12-20T05:02:25;58.05;;;31.15;;
33190;SDS011;19554;42.652;23.364;2023-12-20T05:04:51;105.25;;;55.63;;
33190;SDS011;19554;42.652;23.364;2023-12-20T05:07:16;93.82;;;54.80;;
33190;SDS011;19554;42.652;23.364;2023-12-20T05:09:42;105.53;;;61.05;;
33190;SDS011;19554;42.652;23.364;2023-12-20T05:12:07;92.65;;;56.25;;
33190;SDS011;19554;42.652;23.364;2023-12-20T05:14:33;120.65;;;67.68;;
33190;SDS011;19554;42.652;23.364;2023-12-20T05:16:58;123.30;;;68.53;;
33190;SDS011;19554;42.652;23.364;2023-12-20T05:19:24;126.45;;;73.07;;
33190;SDS011;19554;42.652;23.364;2023-12-20T05:21:50;117.80;;;68.45;;
33190;SDS011;19554;42.652;23.364;2023-12-20T05:24:15;121.07;;;64.38;;
33190;SDS011;19554;42.652;23.364;2023-12-20T05:26:41;137.68;;;72.82;;
33190;SDS011;19554;42.652;23.364;2023-12-20T05:29:06;143.50;;;74.28;;
33190;SDS011;19554;42.652;23.364;2023-12-20T05:31:32;189.07;;;85.28;;
33190;SDS011;19554;42.652;23.364;2023-12-20T05:33:57;156.40;;;83.05;;
33190;SDS011;19554;42.652;23.364;2023-12-20T05:36:23;179.68;;;91.00;;
33190;SDS011;19554;42.652;23.364;2023-12-20T05:38:48;256.08;;;105.80;;
33190;SDS011;19554;42.652;23.364;2023-12-20T05:41:14;202.18;;;93.82;;
33190;SDS011;19554;42.652;23.364;2023-12-20T05:43:39;222.20;;;99.97;;
33190;SDS011;19554;42.652;23.364;2023-12-20T05:46:05;164.27;;;85.57;;
33190;SDS011;19554;42.652;23.364;2023-12-20T05:48:30;217.23;;;92.95;;
33190;SDS011;19554;42.652;23.364;2023-12-20T05:50:56;176.23;;;85.22;;
33190;SDS011;19554;42.652;23.364;2023-12-20T05:53:22;190.75;;;84.22;;
33190;SDS011;19554;42.652;23.364;2023-12-20T05:55:48;210.35;;;83.03;;
33190;SDS011;19554;42.652;23.364;2023-12-20T05:58:13;154.40;;;76.10;;
33190;SDS011;19554;42.652;23.364;2023-12-20T06:00:38;140.82;;;72.63;;
33190;SDS011;19554;42.652;23.364;2023-12-20T06:03:04;146.68;;;75.95;;
33190;SDS011;19554;42.652;23.364;2023-12-20T06:05:30;171.45;;;78.60;;
33190;SDS011;19554;42.652;23.364;2023-12-20T06:07:56;161.77;;;69.10;;
33190;SDS011;19554;42.652;23.364;2023-12-20T06:10:26;144.73;;;67.93;;
33190;SDS011;19554;42.652;23.364;2023-12-20T06:12:52;147.48;;;66.30;;
33190;SDS011;19554;42.652;23.364;2023-12-20T06:15:17;227.98;;;75.78;;
33190;SDS011;19554;42.652;23.364;2023-12-20T06:17:43;148.23;;;69.18;;
33190;SDS011;19554;42.652;23.364;2023-12-20T06:20:09;145.07;;;68.47;;
33190;SDS011;19554;42.652;23.364;2023-12-20T06:22:35;145.25;;;71.85;;
33190;SDS011;19554;42.652;23.364;2023-12-20T06:25:01;153.23;;;72.80;;
33190;SDS011;19554;42.652;23.364;2023-12-20T06:27:28;142.70;;;68.38;;
33190;SDS011;19554;42.652;23.364;2023-12-20T06:29:54;138.45;;;68.72;;
33190;SDS011;19554;42.652;23.364;2023-12-20T06:32:19;131.95;;;67.35;;
33190;SDS011;19554;42.652;23.364;2023-12-20T06:34:45;138.63;;;68.40;;
33190;SDS011;19554;42.652;23.364;2023-12-20T06:37:10;133.18;;;68.50;;
33190;SDS011;19554;42.652;23.364;2023-12-20T06:39:36;128.77;;;70.53;;
33190;SDS011;19554;42.652;23.364;2023-12-20T06:42:01;141.73;;;71.55;;
33190;SDS011;19554;42.652;23.364;2023-12-20T06:44:27;141.45;;;70.28;;
33190;SDS011;19554;42.652;23.364;2023-12-20T06:46:53;145.90;;;72.78;;
33190;SDS011;19554;42.652;23.364;2023-12-20T06:49:18;142.48;;;71.65;;
33190;SDS011;19554;42.652;23.364;2023-12-20T06:51:44;148.70;;;72.88;;
33190;SDS011;19554;42.652;23.364;2023-12-20T06:54:09;166.68;;;81.65;;
33190;SDS011;19554;42.652;23.364;2023-12-20T06:56:34;190.38;;;90.00;;
33190;SDS011;19554;42.652;23.364;2023-12-20T06:59:00;164.93;;;82.88;;
33190;SDS011;19554;42.652;23.364;2023-12-20T07:01:25;152.75;;;75.57;;
33190;SDS011;19554;42.652;23.364;2023-12-20T07:03:51;164.68;;;77.18;;
33190;SDS011;19554;42.652;23.364;2023-12-20T07:06:17;147.77;;;75.95;;
33190;SDS011;19554;42.652;23.364;2023-12-20T07:08:42;160.77;;;78.53;;
33190;SDS011;19554;42.652;23.364;2023-12-20T07:11:08;181.05;;;90.80;;
33190;SDS011;19554;42.652;23.364;2023-12-20T07:13:33;159.73;;;75.50;;
33190;SDS011;19554;42.652;23.364;2023-12-20T07:15:59;134.32;;;66.93;;
33190;SDS011;19554;42.652;23.364;2023-12-20T07:18:24;141.68;;;70.18;;
33190;SDS011;19554;42.652;23.364;2023-12-20T07:20:50;149.02;;;75.13;;
33190;SDS011;19554;42.652;23.364;2023-12-20T07:23:15;164.98;;;81.43;;
33190;SDS011;19554;42.652;23.364;2023-12-20T07:25:41;167.75;;;81.18;;
33190;SDS011;19554;42.652;23.364;2023-12-20T07:28:06;149.82;;;74.93;;
33190;SDS011;19554;42.652;23.364;2023-12-20T07:30:32;138.48;;;70.07;;
33190;SDS011;19554;42.652;23.364;2023-12-20T07:32:57;142.23;;;74.55;;
33190;SDS011;19554;42.652;23.364;2023-12-20T07:35:23;133.63;;;67.70;;
33190;SDS011;19554;42.652;23.364;2023-12-20T07:37:48;132.98;;;68.65;;
33190;SDS011;19554;42.652;23.364;2023-12-20T07:40:14;131.07;;;67.32;;
33190;SDS011;19554;42.652;23.364;2023-12-20T07:42:42;137.93;;;69.13;;
33190;SDS011;19554;42.652;23.364;2023-12-20T07:45:07;131.52;;;70.45;;
33190;SDS011;19554;42.652;23.364;2023-12-20T07:47:34;132.40;;;73.20;;
33190;SDS011;19554;42.652;23.364;2023-12-20T07:49:59;134.75;;;72.68;;
33190;SDS011;19554;42.652;23.364;2023-12-20T07:52:25;128.63;;;67.68;;
33190;SDS011;19554;42.652;23.364;2023-12-20T07:54:51;92.90;;;50.85;;
33190;SDS011;19554;42.652;23.364;2023-12-20T07:57:16;94.50;;;50.28;;
33190;SDS011;19554;42.652;23.364;2023-12-20T07:59:42;95.97;;;52.30;;
33190;SDS011;19554;42.652;23.364;2023-12-20T08:02:09;96.75;;;48.97;;
33190;SDS011;19554;42.652;23.364;2023-12-20T08:04:34;91.32;;;47.53;;
33190;SDS011;19554;42.652;23.364;2023-12-20T08:07:00;88.03;;;48.08;;
33190;SDS011;19554;42.652;23.364;2023-12-20T08:09:26;105.38;;;51.88;;
33190;SDS011;19554;42.652;23.364;2023-12-20T08:11:51;99.30;;;51.05;;
33190;SDS011;19554;42.652;23.364;2023-12-20T08:14:16;102.70;;;53.38;;
33190;SDS011;19554;42.652;23.364;2023-12-20T08:16:42;96.07;;;49.35;;
33190;SDS011;19554;42.652;23.364;2023-12-20T08:19:08;104.28;;;52.92;;
33190;SDS011;19554;42.652;23.364;2023-12-20T08:21:33;105.63;;;52.40;;
33190;SDS011;19554;42.652;23.364;2023-12-20T08:23:59;104.30;;;50.38;;
33190;SDS011;19554;42.652;23.364;2023-12-20T08:26:25;115.15;;;59.60;;
33190;SDS011;19554;42.652;23.364;2023-12-20T08:28:51;120.50;;;56.60;;
33190;SDS011;19554;42.652;23.364;2023-12-20T08:31:17;117.53;;;55.53;;
33190;SDS011;19554;42.652;23.364;2023-12-20T08:33:44;107.68;;;50.15;;
33190;SDS011;19554;42.652;23.364;2023-12-20T08:36:10;103.82;;;51.58;;
33190;SDS011;19554;42.652;23.364;2023-12-20T08:38:36;111.20;;;51.55;;
33190;SDS011;19554;42.652;23.364;2023-12-20T08:41:02;101.22;;;48.63;;
33190;SDS011;19554;42.652;23.364;2023-12-20T08:43:30;121.15;;;54.25;;
33190;SDS011;19554;42.652;23.364;2023-12-20T08:45:56;122.03;;;57.33;;
33190;SDS011;19554;42.652;23.364;2023-12-20T08:48:21;133.32;;;57.70;;
33190;SDS011;19554;42.652;23.364;2023-12-20T08:50:47;129.52;;;57.45;;
33190;SDS011;19554;42.652;23.364;2023-12-20T08:53:13;114.97;;;53.90;;
33190;SDS011;19554;42.652;23.364;2023-12-20T08:55:40;131.32;;;57.15;;
33190;SDS011;19554;42.652;23.364;2023-12-20T08:58:06;122.30;;;54.40;;
33190;SDS011;19554;42.652;23.364;2023-12-20T09:00:33;132.57;;;56.30;;
33190;SDS011;19554;42.652;23.364;2023-12-20T09:02:59;117.47;;;53.60;;
33190;SDS011;19554;42.652;23.364;2023-12-20T09:05:25;125.32;;;58.25;;
33190;SDS011;19554;42.652;23.364;2023-12-20T09:07:50;129.05;;;56.13;;
33190;SDS011;19554;42.652;23.364;2023-12-20T09:10:16;139.20;;;59.88;;
33190;SDS011;19554;42.652;23.364;2023-12-20T09:12:46;126.70;;;56.90;;
33190;SDS011;19554;42.652;23.364;2023-12-20T09:15:13;124.63;;;56.15;;
33190;SDS011;19554;42.652;23.364;2023-12-20T09:17:38;135.27;;;58.63;;
33190;SDS011;19554;42.652;23.364;2023-12-20T09:20:05;129.10;;;57.70;;
33190;SDS011;19554;42.652;23.364;2023-12-20T09:22:33;129.05;;;57.90;;
33190;SDS011;19554;42.652;23.364;2023-12-20T09:24:58;137.55;;;60.40;;
33190;SDS011;19554;42.652;23.364;2023-12-20T09:27:24;148.13;;;62.63;;
33190;SDS011;19554;42.652;23.364;2023-12-20T09:29:49;141.07;;;59.97;;
33190;SDS011;19554;42.652;23.364;2023-12-20T09:32:15;145.77;;;64.53;;
33190;SDS011;19554;42.652;23.364;2023-12-20T09:34:40;151.07;;;65.07;;
33190;SDS011;19554;42.652;23.364;2023-12-20T09:37:06;156.18;;;66.75;;
33190;SDS011;19554;42.652;23.364;2023-12-20T09:39:32;143.65;;;62.45;;
33190;SDS011;19554;42.652;23.364;2023-12-20T09:42:02;149.80;;;62.63;;
33190;SDS011;19554;42.652;23.364;2023-12-20T09:44:29;155.23;;;65.97;;
33190;SDS011;19554;42.652;23.364;2023-12-20T09:46:56;153.95;;;63.63;;
33190;SDS011;19554;42.652;23.364;2023-12-20T09:49:22;149.90;;;63.15;;
33190;SDS011;19554;42.652;23.364;2023-12-20T09:51:50;149.95;;;60.65;;
33190;SDS011;19554;42.652;23.364;2023-12-20T09:54:16;147.02;;;60.38;;
33190;SDS011;19554;42.652;23.364;2023-12-20T09:56:43;129.85;;;59.03;;
33190;SDS011;19554;42.652;23.364;2023-12-20T09:59:08;146.13;;;58.83;;
33190;SDS011;19554;42.652;23.364;2023-12-20T10:01:34;140.80;;;60.90;;
33190;SDS011;19554;42.652;23.364;2023-12-20T10:04:01;126.65;;;55.30;;
33190;SDS011;19554;42.652;23.364;2023-12-20T10:06:34;119.53;;;55.38;;
33190;SDS011;19554;42.652;23.364;2023-12-20T10:09:02;121.63;;;55.60;;
33190;SDS011;19554;42.652;23.364;2023-12-20T10:11:27;126.03;;;55.92;;
33190;SDS011;19554;42.652;23.364;2023-12-20T10:13:58;116.43;;;52.72;;
33190;SDS011;19554;42.652;23.364;2023-12-20T10:16:25;118.32;;;54.00;;
33190;SDS011;19554;42.652;23.364;2023-12-20T10:18:52;116.75;;;53.60;;
33190;SDS011;19554;42.652;23.364;2023-12-20T10:21:18;126.15;;;56.58;;
33190;SDS011;19554;42.652;23.364;2023-12-20T10:23:44;131.90;;;59.13;;
33190;SDS011;19554;42.652;23.364;2023-12-20T10:26:10;130.65;;;59.33;;
33190;SDS011;19554;42.652;23.364;2023-12-20T10:28:45;130.65;;;58.05;;
33190;SDS011;19554;42.652;23.364;2023-12-20T10:31:10;132.40;;;58.40;;
33190;SDS011;19554;42.652;23.364;2023-12-20T10:33:50;130.50;;;58.53;;
33190;SDS011;19554;42.652;23.364;2023-12-20T10:36:16;123.18;;;55.75;;
33190;SDS011;19554;42.652;23.364;2023-12-20T10:38:41;128.23;;;55.03;;
33190;SDS011;19554;42.652;23.364;2023-12-20T10:41:07;131.85;;;55.30;;
33190;SDS011;19554;42.652;23.364;2023-12-20T10:43:35;111.05;;;53.97;;
33190;SDS011;19554;42.652;23.364;2023-12-20T10:46:01;111.03;;;51.72;;
33190;SDS011;19554;42.652;23.364;2023-12-20T10:48:28;105.20;;;49.20;;
33190;SDS011;19554;42.652;23.364;2023-12-20T10:50:57;104.25;;;50.83;;
33190;SDS011;19554;42.652;23.364;2023-12-20T10:53:24;121.15;;;50.83;;
33190;SDS011;19554;42.652;23.364;2023-12-20T10:55:50;111.13;;;50.47;;
33190;SDS011;19554;42.652;23.364;2023-12-20T10:58:20;108.88;;;53.50;;
33190;SDS011;19554;42.652;23.364;2023-12-20T11:00:47;113.10;;;51.85;;
33190;SDS011;19554;42.652;23.364;2023-12-20T11:03:19;121.30;;;52.50;;
33190;SDS011;19554;42.652;23.364;2023-12-20T11:05:58;133.63;;;56.05;;
33190;SDS011;19554;42.652;23.364;2023-12-20T11:08:32;136.10;;;60.30;;
33190;SDS011;19554;42.652;23.364;2023-12-20T11:11:18;122.20;;;57.70;;
33190;SDS011;19554;42.652;23.364;2023-12-20T11:13:58;123.75;;;58.80;;
33190;SDS011;19554;42.652;23.364;2023-12-20T11:16:28;119.00;;;54.95;;
33190;SDS011;19554;42.652;23.364;2023-12-20T11:18:56;124.25;;;58.08;;
33190;SDS011;19554;42.652;23.364;2023-12-20T11:21:21;118.50;;;56.58;;
33190;SDS011;19554;42.652;23.364;2023-12-20T11:23:47;123.45;;;57.15;;
33190;SDS011;19554;42.652;23.364;2023-12-20T11:26:13;130.43;;;59.25;;
33190;SDS011;19554;42.652;23.364;2023-12-20T11:28:41;130.80;;;59.47;;
33190;SDS011;19554;42.652;23.364;2023-12-20T11:31:06;132.05;;;58.75;;
33190;SDS011;19554;42.652;23.364;2023-12-20T11:35:57;125.80;;;56.42;;
33190;SDS011;19554;42.652;23.364;2023-12-20T11:38:24;114.50;;;56.17;;
33190;SDS011;19554;42.652;23.364;2023-12-20T11:40:50;127.13;;;54.88;;
33190;SDS011;19554;42.652;23.364;2023-12-20T11:46:07;117.53;;;55.50;;
33190;SDS011;19554;42.652;23.364;2023-12-20T11:48:51;133.77;;;57.83;;
33190;SDS011;19554;42.652;23.364;2023-12-20T11:51:17;130.95;;;60.70;;
33190;SDS011;19554;42.652;23.364;2023-12-20T11:53:42;129.23;;;57.13;;
33190;SDS011;19554;42.652;23.364;2023-12-20T11:56:08;135.95;;;59.05;;
33190;SDS011;19554;42.652;23.364;2023-12-20T11:58:34;119.35;;;57.75;;
33190;SDS011;19554;42.652;23.364;2023-12-20T12:01:00;113.50;;;54.78;;
33190;SDS011;19554;42.652;23.364;2023-12-20T12:03:27;115.03;;;55.05;;
33190;SDS011;19554;42.652;23.364;2023-12-20T12:05:53;121.22;;;56.05;;
33190;SDS011;19554;42.652;23.364;2023-12-20T12:08:18;110.43;;;54.35;;
33190;SDS011;19554;42.652;23.364;2023-12-20T12:10:44;112.57;;;52.58;;
33190;SDS011;19554;42.652;23.364;2023-12-20T12:13:10;117.50;;;53.97;;
33190;SDS011;19554;42.652;23.364;2023-12-20T12:15:36;113.28;;;52.97;;
33190;SDS011;19554;42.652;23.364;2023-12-20T12:18:02;109.88;;;51.70;;
33190;SDS011;19554;42.652;23.364;2023-12-20T12:20:28;105.43;;;48.67;;
33190;SDS011;19554;42.652;23.364;2023-12-20T12:23:01;92.32;;;45.75;;
33190;SDS011;19554;42.652;23.364;2023-12-20T12:25:28;101.05;;;47.00;;
33190;SDS011;19554;42.652;23.364;2023-12-20T12:27:55;100.03;;;46.90;;
33190;SDS011;19554;42.652;23.364;2023-12-20T12:30:21;100.75;;;47.80;;
33190;SDS011;19554;42.652;23.364;2023-12-20T12:32:47;108.25;;;50.83;;
33190;SDS011;19554;42.652;23.364;2023-12-20T12:35:13;89.20;;;46.92;;
33190;SDS011;19554;42.652;23.364;2023-12-20T12:37:39;99.75;;;47.88;;
33190;SDS011;19554;42.652;23.364;2023-12-20T12:40:10;99.57;;;47.95;;
33190;SDS011;19554;42.652;23.364;2023-12-20T12:42:37;94.95;;;48.53;;
33190;SDS011;19554;42.652;23.364;2023-12-20T12:45:03;96.05;;;48.05;;
33190;SDS011;19554;42.652;23.364;2023-12-20T12:47:29;97.45;;;47.63;;
33190;SDS011;19554;42.652;23.364;2023-12-20T12:49:55;88.22;;;44.47;;
33190;SDS011;19554;42.652;23.364;2023-12-20T12:52:21;87.25;;;45.50;;
33190;SDS011;19554;42.652;23.364;2023-12-20T12:54:47;87.82;;;44.92;;
33190;SDS011;19554;42.652;23.364;2023-12-20T12:57:13;92.10;;;45.47;;
33190;SDS011;19554;42.652;23.364;2023-12-20T12:59:40;108.88;;;47.55;;
33190;SDS011;19554;42.652;23.364;2023-12-20T13:02:06;109.18;;;49.88;;
33190;SDS011;19554;42.652;23.364;2023-12-20T13:04:31;110.50;;;50.70;;
33190;SDS011;19554;42.652;23.364;2023-12-20T13:06:57;114.88;;;52.08;;
33190;SDS011;19554;42.652;23.364;2023-12-20T13:09:22;114.20;;;51.88;;
33190;SDS011;19554;42.652;23.364;2023-12-20T13:11:48;121.05;;;53.53;;
33190;SDS011;19554;42.652;23.364;2023-12-20T13:14:14;125.95;;;55.65;;
33190;SDS011;19554;42.652;23.364;2023-12-20T13:16:41;121.78;;;55.25;;
33190;SDS011;19554;42.652;23.364;2023-12-20T13:19:07;133.80;;;61.25;;
33190;SDS011;19554;42.652;23.364;2023-12-20T13:21:32;135.45;;;66.05;;
33190;SDS011;19554;42.652;23.364;2023-12-20T13:23:58;134.85;;;65.82;;
33190;SDS011;19554;42.652;23.364;2023-12-20T13:26:24;133.30;;;65.65;;
33190;SDS011;19554;42.652;23.364;2023-12-20T13:28:49;153.07;;;68.30;;
33190;SDS011;19554;42.652;23.364;2023-12-20T13:31:15;138.35;;;67.50;;
33190;SDS011;19554;42.652;23.364;2023-12-20T13:33:40;151.48;;;70.10;;
33190;SDS011;19554;42.652;23.364;2023-12-20T13:36:06;151.65;;;68.38;;
33190;SDS011;19554;42.652;23.364;2023-12-20T13:38:32;136.70;;;65.65;;
33190;SDS011;19554;42.652;23.364;2023-12-20T13:40:58;139.00;;;64.82;;
33190;SDS011;19554;42.652;23.364;2023-12-20T13:43:24;144.75;;;68.30;;
33190;SDS011;19554;42.652;23.364;2023-12-20T13:45:49;132.75;;;65.15;;
33190;SDS011;19554;42.652;23.364;2023-12-20T13:48:15;143.68;;;65.10;;
33190;SDS011;19554;42.652;23.364;2023-12-20T13:50:41;134.93;;;64.80;;
33190;SDS011;19554;42.652;23.364;2023-12-20T13:53:07;144.00;;;64.75;;
33190;SDS011;19554;42.652;23.364;2023-12-20T13:55:32;137.55;;;62.60;;
33190;SDS011;19554;42.652;23.364;2023-12-20T13:57:58;138.18;;;66.20;;
33190;SDS011;19554;42.652;23.364;2023-12-20T14:00:23;150.27;;;69.70;;